createdAt,value
2017-10-01T00:02:25.251Z,37.70
2017-10-01T00:04:53.504Z,33.50
2017-10-01T00:07:21.811Z,33.93
2017-10-01T00:09:50.086Z,42.93
2017-10-01T00:12:18.371Z,30.20
2017-10-01T00:14:46.642Z,33.80
2017-10-01T00:17:14.895Z,37.77
2017-10-01T00:19:43.166Z,33.37
2017-10-01T00:22:12.207Z,32.10
2017-10-01T00:24:40.467Z,24.70
2017-10-01T00:27:08.793Z,30.13
2017-10-01T00:29:37.041Z,30.20
2017-10-01T00:32:05.347Z,30.40
2017-10-01T00:34:34.355Z,32.07
2017-10-01T00:37:02.656Z,41.97
2017-10-01T00:39:30.907Z,31.53
2017-10-01T00:41:59.204Z,42.30
2017-10-01T00:44:27.485Z,44.90
2017-10-01T00:46:55.759Z,38.20
2017-10-01T00:49:24.023Z,43.13
2017-10-01T00:51:53.074Z,44.97
2017-10-01T00:54:21.349Z,43.77
2017-10-01T00:56:49.646Z,38.17
2017-10-01T00:59:18.689Z,43.50
2017-10-01T01:01:46.985Z,39.67
2017-10-01T01:04:15.250Z,30.10
2017-10-01T01:06:43.509Z,48.47
2017-10-01T01:09:11.729Z,34.30
2017-10-01T01:11:40.078Z,37.77
2017-10-01T01:14:08.307Z,37.60
2017-10-01T01:16:37.335Z,41.60
2017-10-01T01:19:05.881Z,38.10
2017-10-01T01:21:34.166Z,39.90
2017-10-01T01:24:03.193Z,40.63
2017-10-01T01:26:31.548Z,43.03
2017-10-01T01:29:01.090Z,50.33
2017-10-01T01:31:29.408Z,50.63
2017-10-01T01:33:57.702Z,50.27
2017-10-01T01:36:26.743Z,43.77
2017-10-01T01:38:55.328Z,43.13
2017-10-01T01:41:23.612Z,53.37
2017-10-01T01:43:51.900Z,56.13
2017-10-01T01:46:20.175Z,45.37
2017-10-01T01:48:48.426Z,70.53
2017-10-01T01:51:16.725Z,50.17
2017-10-01T01:53:45.012Z,47.10
2017-10-01T01:56:13.302Z,60.90
2017-10-01T01:58:41.601Z,58.30
2017-10-01T02:01:10.660Z,51.93
2017-10-01T02:03:38.935Z,59.17
2017-10-01T02:06:07.248Z,63.03
2017-10-01T02:08:36.331Z,50.53
2017-10-01T02:11:04.653Z,68.73
2017-10-01T02:13:32.921Z,57.03
2017-10-01T02:16:01.943Z,75.00
2017-10-01T02:18:30.285Z,53.33
2017-10-01T02:20:58.594Z,60.47
2017-10-01T02:23:26.857Z,58.53
2017-10-01T02:25:55.125Z,70.80
2017-10-01T02:28:24.179Z,59.60
2017-10-01T02:30:52.468Z,60.00
2017-10-01T02:33:20.770Z,72.00
2017-10-01T02:35:49.095Z,52.20
2017-10-01T02:38:17.360Z,54.90
2017-10-01T02:40:45.674Z,59.43
2017-10-01T02:43:13.918Z,76.33
2017-10-01T02:45:42.215Z,61.77
2017-10-01T02:48:10.489Z,74.97
2017-10-01T02:50:38.755Z,67.20
2017-10-01T02:53:07.027Z,64.10
2017-10-01T02:55:35.269Z,64.93
2017-10-01T02:58:04.394Z,67.37
2017-10-01T03:00:32.671Z,63.50
2017-10-01T03:03:00.948Z,64.40
2017-10-01T03:05:29.188Z,56.17
2017-10-01T03:07:58.252Z,63.20
2017-10-01T03:10:26.524Z,55.67
2017-10-01T03:12:54.761Z,54.87
2017-10-01T03:15:23.022Z,50.33
2017-10-01T03:17:51.310Z,50.30
2017-10-01T03:20:19.600Z,55.07
2017-10-01T03:22:47.869Z,58.27
2017-10-01T03:25:16.786Z,53.23
2017-10-01T03:27:45.017Z,67.87
2017-10-01T03:30:13.307Z,50.03
2017-10-01T03:32:41.570Z,51.93
2017-10-01T03:35:10.617Z,63.37
2017-10-01T03:37:38.853Z,70.50
2017-10-01T03:40:07.119Z,60.60
2017-10-01T03:42:36.177Z,64.43
2017-10-01T03:45:04.415Z,77.80
2017-10-01T03:47:32.670Z,56.33
2017-10-01T03:50:00.952Z,63.43
2017-10-01T03:52:29.218Z,42.73
2017-10-01T03:54:58.262Z,42.50
2017-10-01T03:57:35.461Z,41.10
2017-10-01T04:00:03.738Z,43.03
2017-10-01T04:02:31.989Z,44.50
2017-10-01T04:05:00.242Z,41.57
2017-10-01T04:07:28.497Z,43.00
2017-10-01T04:09:56.738Z,41.30
2017-10-01T04:12:25.005Z,51.27
2017-10-01T04:14:53.613Z,45.23
2017-10-01T04:17:21.854Z,43.40
2017-10-01T04:19:50.844Z,31.93
2017-10-01T04:22:19.879Z,41.23
2017-10-01T04:24:48.156Z,33.30
2017-10-01T04:27:16.421Z,80.37
2017-10-01T04:29:44.660Z,79.53
2017-10-01T04:32:13.678Z,193.40
2017-10-01T04:34:41.983Z,175.50
2017-10-01T04:37:10.252Z,142.43
2017-10-01T04:39:38.490Z,232.23
2017-10-01T04:42:07.519Z,97.57
2017-10-01T04:44:35.826Z,69.63
2017-10-01T04:47:04.073Z,40.10
2017-10-01T04:49:32.351Z,35.40
2017-10-01T04:52:00.632Z,39.07
2017-10-01T04:54:28.886Z,282.47
2017-10-01T04:56:57.163Z,63.07
2017-10-01T04:59:25.425Z,72.90
2017-10-01T05:01:54.467Z,65.20
2017-10-01T05:04:22.730Z,143.33
2017-10-01T05:06:50.974Z,115.57
2017-10-01T05:09:19.244Z,279.83
2017-10-01T05:11:48.295Z,70.93
2017-10-01T05:14:16.514Z,46.83
2017-10-01T05:16:44.983Z,59.23
2017-10-01T05:19:13.266Z,251.70
2017-10-01T05:21:41.526Z,81.50
2017-10-01T05:24:09.744Z,32.47
2017-10-01T05:26:37.993Z,106.10
2017-10-01T05:29:07.032Z,100.13
2017-10-01T05:31:35.293Z,42.03
2017-10-01T05:34:04.298Z,53.10
2017-10-01T05:36:32.604Z,74.13
2017-10-01T05:39:00.842Z,46.27
2017-10-01T05:41:29.115Z,74.00
2017-10-01T05:43:58.121Z,66.00
2017-10-01T05:46:26.408Z,32.87
2017-10-01T05:48:54.713Z,34.83
2017-10-01T05:51:23.011Z,26.47
2017-10-01T05:53:51.240Z,38.83
2017-10-01T05:56:19.514Z,31.00
2017-10-01T05:58:47.857Z,30.57
2017-10-01T06:01:16.095Z,30.50
2017-10-01T06:03:44.378Z,35.90
2017-10-01T06:06:12.663Z,39.63
2017-10-01T06:08:40.925Z,34.50
2017-10-01T06:11:09.218Z,31.70
2017-10-01T06:13:37.475Z,30.47
2017-10-01T06:16:05.785Z,27.67
2017-10-01T06:18:34.016Z,31.30
2017-10-01T06:21:02.295Z,61.73
2017-10-01T06:23:30.546Z,31.33
2017-10-01T06:25:59.554Z,37.97
2017-10-01T06:28:27.818Z,34.07
2017-10-01T06:30:56.876Z,29.30
2017-10-01T06:33:25.132Z,31.93
2017-10-01T06:35:53.392Z,34.33
2017-10-01T06:38:21.646Z,31.60
2017-10-01T06:40:50.791Z,39.30
2017-10-01T06:43:19.057Z,36.70
2017-10-01T06:45:47.278Z,40.87
2017-10-01T06:48:16.293Z,41.43
2017-10-01T06:50:45.927Z,37.47
2017-10-01T06:53:14.207Z,39.07
2017-10-01T06:55:42.461Z,38.53
2017-10-01T06:58:10.758Z,35.53
2017-10-01T07:00:39.024Z,35.83
2017-10-01T07:03:07.284Z,44.67
2017-10-01T07:05:36.304Z,55.70
2017-10-01T07:08:04.575Z,39.73
2017-10-01T07:10:33.944Z,58.50
2017-10-01T07:13:02.175Z,40.40
2017-10-01T07:15:30.473Z,47.30
2017-10-01T07:17:58.730Z,46.47
2017-10-01T07:20:26.966Z,47.90
2017-10-01T07:22:56.018Z,40.47
2017-10-01T07:25:24.292Z,37.83
2017-10-01T07:27:52.558Z,37.00
2017-10-01T07:30:20.840Z,45.87
2017-10-01T07:32:49.122Z,74.33
2017-10-01T07:35:17.390Z,47.23
2017-10-01T07:37:45.664Z,51.63
2017-10-01T07:40:13.958Z,51.03
2017-10-01T07:42:42.266Z,35.47
2017-10-01T07:45:10.519Z,38.40
2017-10-01T07:47:38.812Z,35.23
2017-10-01T07:50:07.092Z,47.40
2017-10-01T07:52:35.338Z,44.83
2017-10-01T07:55:03.647Z,37.50
2017-10-01T07:57:31.898Z,41.77
2017-10-01T08:00:00.173Z,37.67
2017-10-01T08:02:28.473Z,47.90
2017-10-01T08:04:56.731Z,40.27
2017-10-01T08:07:25.064Z,39.17
2017-10-01T08:09:54.990Z,40.40
2017-10-01T08:12:23.255Z,39.83
2017-10-01T08:14:51.597Z,38.90
2017-10-01T08:17:19.866Z,35.90
2017-10-01T08:19:49.126Z,39.63
2017-10-01T08:22:17.411Z,37.13
2017-10-01T08:24:45.685Z,35.07
2017-10-01T08:27:13.983Z,39.03
2017-10-01T08:29:42.251Z,28.67
2017-10-01T08:32:10.533Z,36.83
2017-10-01T08:34:38.849Z,30.37
2017-10-01T08:37:08.300Z,38.07
2017-10-01T08:39:36.579Z,28.97
2017-10-01T08:42:04.843Z,24.13
2017-10-01T08:44:33.924Z,27.80
2017-10-01T08:47:02.968Z,37.23
2017-10-01T08:49:31.459Z,28.80
2017-10-01T08:51:59.730Z,26.77
2017-10-01T08:54:28.438Z,31.37
2017-10-01T08:56:57.507Z,24.83
2017-10-01T08:59:25.807Z,23.00
2017-10-01T09:01:54.044Z,21.60
2017-10-01T09:04:22.338Z,27.77
2017-10-01T09:06:50.596Z,21.43
2017-10-01T09:09:18.899Z,27.40
2017-10-01T09:11:47.183Z,28.83
2017-10-01T09:14:15.468Z,21.87
2017-10-01T09:16:43.767Z,25.53
2017-10-01T09:19:12.917Z,25.37
2017-10-01T09:21:41.939Z,22.93
2017-10-01T09:24:10.222Z,19.67
2017-10-01T09:26:38.529Z,17.00
2017-10-01T09:29:06.811Z,24.27
2017-10-01T09:31:35.811Z,17.53
2017-10-01T09:34:04.884Z,18.80
2017-10-01T09:36:33.284Z,20.07
2017-10-01T09:39:02.316Z,19.57
2017-10-01T09:41:30.648Z,23.70
2017-10-01T09:43:59.689Z,23.10
2017-10-01T09:46:28.012Z,17.90
2017-10-01T09:48:56.301Z,11.70
2017-10-01T09:51:25.327Z,14.10
2017-10-01T09:53:53.597Z,15.17
2017-10-01T09:56:21.839Z,11.97
2017-10-01T09:58:50.129Z,20.90
2017-10-01T10:01:18.441Z,9.27
2017-10-01T10:03:47.443Z,19.47
2017-10-01T10:06:15.716Z,19.57
2017-10-01T10:08:45.072Z,11.80
2017-10-01T10:11:13.313Z,10.47
2017-10-01T10:13:41.589Z,16.93
2017-10-01T10:16:09.887Z,11.27
2017-10-01T10:18:38.153Z,9.43
2017-10-01T10:21:06.457Z,19.00
2017-10-01T10:23:34.716Z,12.00
2017-10-01T10:26:02.989Z,7.40
2017-10-01T10:28:31.238Z,18.00
2017-10-01T10:30:59.547Z,19.27
2017-10-01T10:33:27.821Z,13.17
2017-10-01T10:35:56.108Z,6.40
2017-10-01T10:38:24.329Z,18.13
2017-10-01T10:40:52.596Z,5.17
2017-10-01T10:43:21.654Z,13.17
2017-10-01T10:45:49.959Z,15.57
2017-10-01T10:48:19.016Z,10.53
2017-10-01T10:50:47.296Z,12.30
2017-10-01T10:53:15.572Z,14.63
2017-10-01T10:55:43.846Z,11.50
2017-10-01T10:58:12.119Z,10.27
2017-10-01T11:00:40.353Z,5.37
2017-10-01T11:03:08.721Z,7.83
2017-10-01T11:05:37.767Z,8.13
2017-10-01T11:08:05.990Z,6.43
2017-10-01T11:10:34.259Z,7.63
2017-10-01T11:13:02.540Z,5.90
2017-10-01T11:15:30.759Z,7.10
2017-10-01T11:17:59.403Z,11.57
2017-10-01T11:20:29.134Z,11.17
2017-10-01T11:22:57.422Z,9.73
2017-10-01T11:25:25.694Z,7.17
2017-10-01T11:27:54.003Z,10.23
2017-10-01T11:30:22.268Z,8.77
2017-10-01T11:32:50.589Z,5.93
2017-10-01T11:35:18.855Z,6.73
2017-10-01T11:37:47.942Z,5.23
2017-10-01T11:40:17.033Z,8.03
2017-10-01T11:42:45.329Z,16.77
2017-10-01T11:45:13.598Z,6.53
2017-10-01T11:47:41.826Z,9.40
2017-10-01T11:50:10.147Z,5.60
2017-10-01T11:52:38.416Z,10.97
2017-10-01T11:55:06.703Z,11.30
2017-10-01T11:57:34.971Z,10.10
2017-10-01T12:00:03.243Z,3.97
2017-10-01T12:02:31.523Z,10.17
2017-10-01T12:04:59.813Z,4.30
2017-10-01T12:07:28.070Z,22.60
2017-10-01T12:09:56.350Z,10.83
2017-10-01T12:12:24.604Z,9.00
2017-10-01T12:14:53.645Z,7.17
2017-10-01T12:17:22.881Z,8.17
2017-10-01T12:19:51.174Z,11.17
2017-10-01T12:22:19.449Z,5.47
2017-10-01T12:24:48.488Z,10.10
2017-10-01T12:27:16.755Z,8.73
2017-10-01T12:29:45.019Z,14.80
2017-10-01T12:32:14.236Z,9.47
2017-10-01T12:34:42.470Z,33.13
2017-10-01T12:37:10.736Z,10.33
2017-10-01T12:39:39.043Z,12.70
2017-10-01T12:42:07.309Z,9.20
2017-10-01T12:44:36.374Z,15.33
2017-10-01T12:47:04.714Z,8.53
2017-10-01T12:49:33.013Z,7.07
2017-10-01T12:52:01.234Z,12.47
2017-10-01T12:54:29.574Z,6.67
2017-10-01T12:56:57.818Z,5.43
2017-10-01T12:59:26.054Z,20.87
2017-10-01T13:02:01.418Z,16.77
2017-10-01T13:04:30.439Z,8.20
2017-10-01T13:06:58.723Z,16.77
2017-10-01T13:09:27.032Z,15.77
2017-10-01T13:11:55.310Z,11.23
2017-10-01T13:14:23.628Z,6.10
2017-10-01T13:16:52.685Z,5.07
2017-10-01T13:19:20.960Z,13.57
2017-10-01T13:21:49.204Z,11.43
2017-10-01T13:24:17.454Z,5.80
2017-10-01T13:26:45.729Z,7.90
2017-10-01T13:29:14.002Z,6.83
2017-10-01T13:31:42.314Z,10.50
2017-10-01T13:34:10.573Z,4.70
2017-10-01T13:36:40.473Z,6.73
2017-10-01T13:39:09.893Z,11.13
2017-10-01T13:41:38.171Z,13.10
2017-10-01T13:44:06.470Z,21.30
2017-10-01T13:46:34.721Z,10.53
2017-10-01T13:49:02.994Z,10.80
2017-10-01T13:51:32.043Z,10.20
2017-10-01T13:54:00.301Z,6.20
2017-10-01T13:56:29.178Z,8.93
2017-10-01T13:58:57.403Z,10.67
2017-10-01T14:01:26.489Z,23.10
2017-10-01T14:03:54.741Z,7.13
2017-10-01T14:06:23.082Z,4.43
2017-10-01T14:08:51.354Z,5.57
2017-10-01T14:11:20.363Z,9.70
2017-10-01T14:13:48.656Z,12.30
2017-10-01T14:16:17.389Z,14.70
2017-10-01T14:18:46.460Z,24.43
2017-10-01T14:21:15.523Z,8.30
2017-10-01T14:23:43.801Z,14.60
2017-10-01T14:26:12.122Z,6.43
2017-10-01T14:28:40.719Z,6.10
2017-10-01T14:31:28.616Z,2.10
2017-10-01T14:33:56.839Z,4.20
2017-10-01T14:36:25.132Z,9.43
2017-10-01T14:38:53.367Z,7.63
2017-10-01T14:41:21.691Z,4.10
2017-10-01T14:43:49.899Z,4.70
2017-10-01T14:46:18.169Z,10.00
2017-10-01T14:48:46.470Z,6.07
2017-10-01T14:51:14.742Z,19.87
2017-10-01T14:53:43.033Z,5.87
2017-10-01T14:56:11.451Z,9.97
2017-10-01T14:58:39.691Z,13.17
2017-10-01T15:01:07.976Z,9.70
2017-10-01T15:03:36.236Z,9.37
2017-10-01T15:06:04.539Z,14.97
2017-10-01T15:08:32.792Z,31.93
2017-10-01T15:11:01.120Z,16.43
2017-10-01T15:13:29.420Z,6.50
2017-10-01T15:15:58.463Z,13.43
2017-10-01T15:18:26.742Z,10.70
2017-10-01T15:20:54.980Z,33.20
2017-10-01T15:23:23.285Z,8.93
2017-10-01T15:25:51.556Z,11.93
2017-10-01T15:28:19.841Z,4.97
2017-10-01T15:30:48.099Z,6.40
2017-10-01T15:33:16.368Z,20.43
2017-10-01T15:35:44.630Z,10.30
2017-10-01T15:38:12.971Z,12.80
2017-10-01T15:40:41.239Z,44.03
2017-10-01T15:43:09.498Z,6.47
2017-10-01T15:45:37.864Z,13.10
2017-10-01T15:48:06.211Z,3.87
2017-10-01T15:50:34.469Z,9.00
2017-10-01T15:53:03.657Z,11.83
2017-10-01T15:55:32.346Z,6.70
2017-10-01T15:58:00.601Z,4.93
2017-10-01T16:00:29.000Z,15.03
2017-10-01T16:02:57.244Z,6.77
2017-10-01T16:05:25.500Z,16.17
2017-10-01T16:07:53.776Z,12.80
2017-10-01T16:10:22.872Z,13.33
2017-10-01T16:12:51.115Z,5.00
2017-10-01T16:15:20.169Z,7.33
2017-10-01T16:17:48.445Z,6.27
2017-10-01T16:20:16.703Z,10.23
2017-10-01T16:22:44.962Z,10.73
2017-10-01T16:25:13.218Z,11.77
2017-10-01T16:27:42.269Z,18.93
2017-10-01T16:30:10.537Z,6.80
2017-10-01T16:32:38.802Z,12.20
2017-10-01T16:35:07.141Z,10.77
2017-10-01T16:37:35.430Z,13.53
2017-10-01T16:40:03.737Z,14.33
2017-10-01T16:42:32.013Z,13.50
2017-10-01T16:45:01.296Z,11.63
2017-10-01T16:47:29.568Z,13.80
2017-10-01T16:49:58.639Z,11.17
2017-10-01T16:52:26.893Z,17.27
2017-10-01T16:54:55.153Z,9.73
2017-10-01T16:57:23.454Z,6.23
2017-10-01T16:59:51.752Z,13.67
2017-10-01T17:02:20.842Z,10.27
2017-10-01T17:04:49.086Z,10.00
2017-10-01T17:07:17.456Z,16.60
2017-10-01T17:09:45.758Z,13.13
2017-10-01T17:12:14.878Z,16.80
2017-10-01T17:14:43.935Z,7.93
2017-10-01T17:17:12.264Z,11.90
2017-10-01T17:19:41.300Z,18.17
2017-10-01T17:22:09.584Z,17.83
2017-10-01T17:24:37.854Z,26.13
2017-10-01T17:27:06.161Z,15.07
2017-10-01T17:29:34.463Z,14.20
2017-10-01T17:32:02.773Z,14.87
2017-10-01T17:34:31.837Z,10.80
2017-10-01T17:37:00.883Z,12.97
2017-10-01T17:39:29.184Z,11.17
2017-10-01T17:41:57.478Z,11.63
2017-10-01T17:44:25.789Z,10.00
2017-10-01T17:46:54.840Z,8.03
2017-10-01T17:49:23.119Z,7.07
2017-10-01T17:51:51.353Z,13.87
2017-10-01T17:54:21.913Z,13.90
2017-10-01T17:56:50.184Z,20.73
2017-10-01T17:59:19.382Z,13.37
2017-10-01T18:01:47.640Z,21.27
2017-10-01T18:04:16.144Z,26.03
2017-10-01T18:06:44.459Z,14.87
2017-10-01T18:09:12.773Z,12.50
2017-10-01T18:11:41.049Z,9.60
2017-10-01T18:14:10.985Z,6.00
2017-10-01T18:16:39.289Z,11.50
2017-10-01T18:19:07.561Z,7.20
2017-10-01T18:21:36.708Z,16.60
2017-10-01T18:24:05.792Z,13.13
2017-10-01T18:26:34.096Z,12.00
2017-10-01T18:29:03.154Z,14.93
2017-10-01T18:31:32.261Z,10.83
2017-10-01T18:34:00.576Z,12.23
2017-10-01T18:36:28.935Z,11.13
2017-10-01T18:38:58.060Z,11.73
2017-10-01T18:41:26.484Z,11.63
2017-10-01T18:43:54.830Z,12.60
2017-10-01T18:46:23.171Z,22.17
2017-10-01T18:48:57.097Z,19.13
2017-10-01T18:51:25.446Z,12.33
2017-10-01T18:53:53.755Z,10.23
2017-10-01T18:56:22.057Z,16.67
2017-10-01T18:58:50.378Z,10.90
2017-10-01T19:01:19.412Z,14.27
2017-10-01T19:03:48.066Z,15.87
2017-10-01T19:06:16.534Z,15.37
2017-10-01T19:08:44.833Z,8.90
2017-10-01T19:11:13.921Z,21.33
2017-10-01T19:13:42.975Z,14.17
2017-10-01T19:16:11.260Z,11.23
2017-10-01T19:18:39.540Z,11.70
2017-10-01T19:21:07.939Z,18.13
2017-10-01T19:23:36.235Z,11.73
2017-10-01T19:26:05.293Z,18.20
2017-10-01T19:28:34.316Z,8.67
2017-10-01T19:31:02.554Z,23.47
2017-10-01T19:33:30.845Z,11.87
2017-10-01T19:36:00.020Z,16.73
2017-10-01T19:38:28.314Z,15.80
2017-10-01T19:40:56.632Z,14.43
2017-10-01T19:43:24.931Z,10.57
2017-10-01T19:45:53.306Z,12.73
2017-10-01T19:48:23.277Z,9.57
2017-10-01T19:50:52.050Z,15.60
2017-10-01T19:53:20.890Z,8.60
2017-10-01T19:55:49.462Z,8.40
2017-10-01T19:58:17.785Z,9.37
2017-10-01T20:00:47.801Z,14.50
2017-10-01T20:03:16.228Z,18.60
2017-10-01T20:05:47.258Z,10.90
2017-10-01T20:08:15.597Z,20.87
2017-10-01T20:10:44.706Z,20.80
2017-10-01T20:13:12.978Z,20.63
2017-10-01T20:15:41.234Z,10.73
2017-10-01T20:18:09.551Z,16.10
2017-10-01T20:20:37.837Z,8.43
2017-10-01T20:23:06.118Z,17.27
2017-10-01T20:25:34.409Z,20.40
2017-10-01T20:28:02.677Z,12.27
2017-10-01T20:30:30.957Z,10.13
2017-10-01T20:33:00.250Z,11.53
2017-10-01T20:35:29.373Z,11.43
2017-10-01T20:37:58.447Z,11.03
2017-10-01T20:40:26.743Z,18.03
2017-10-01T20:42:55.016Z,10.67
2017-10-01T20:45:23.346Z,13.10
2017-10-01T20:47:51.663Z,12.23
2017-10-01T20:50:19.941Z,14.07
2017-10-01T20:52:49.301Z,11.20
2017-10-01T20:55:18.785Z,12.13
2017-10-01T20:57:47.039Z,14.10
2017-10-01T21:00:16.134Z,10.53
2017-10-01T21:02:44.412Z,14.20
2017-10-01T21:05:12.682Z,24.90
2017-10-01T21:07:41.732Z,20.77
2017-10-01T21:10:10.055Z,10.80
2017-10-01T21:12:39.110Z,16.90
2017-10-01T21:15:07.437Z,12.20
2017-10-01T21:17:35.697Z,12.30
2017-10-01T21:20:03.987Z,20.60
2017-10-01T21:22:32.729Z,16.80
2017-10-01T21:25:02.114Z,24.20
2017-10-01T21:27:30.387Z,25.30
2017-10-01T21:29:59.435Z,12.03
2017-10-01T21:32:27.733Z,9.70
2017-10-01T21:34:56.022Z,22.87
2017-10-01T21:37:25.176Z,6.33
2017-10-01T21:39:53.614Z,10.67
2017-10-01T21:42:22.719Z,21.60
2017-10-01T21:44:50.989Z,20.90
2017-10-01T21:47:19.313Z,11.47
2017-10-01T21:49:47.549Z,8.53
2017-10-01T21:52:15.863Z,10.60
2017-10-01T21:54:44.107Z,16.83
2017-10-01T21:57:12.358Z,9.17
2017-10-01T21:59:41.450Z,18.37
2017-10-01T22:02:09.724Z,10.17
2017-10-01T22:04:37.970Z,12.87
2017-10-01T22:07:06.265Z,15.63
2017-10-01T22:09:34.564Z,14.00
2017-10-01T22:12:02.834Z,11.40
2017-10-01T22:14:31.107Z,26.43
2017-10-01T22:16:59.369Z,12.63
2017-10-01T22:19:27.644Z,16.60
2017-10-01T22:21:55.898Z,13.77
2017-10-01T22:24:24.186Z,12.93
2017-10-01T22:26:52.600Z,10.80
2017-10-01T22:29:20.856Z,16.57
2017-10-01T22:31:49.142Z,19.30
2017-10-01T22:34:17.373Z,16.13
2017-10-01T22:36:45.643Z,11.67
2017-10-01T22:39:13.891Z,12.40
2017-10-01T22:41:42.910Z,10.83
2017-10-01T22:44:11.189Z,13.03
2017-10-01T22:46:39.451Z,10.20
2017-10-01T22:49:08.602Z,14.67
2017-10-01T22:51:36.894Z,10.30
2017-10-01T22:54:05.129Z,7.97
2017-10-01T22:56:33.396Z,7.93
2017-10-01T22:59:03.337Z,15.10
2017-10-01T23:01:31.895Z,8.63
2017-10-01T23:04:00.164Z,17.07
2017-10-01T23:06:28.443Z,13.50
2017-10-01T23:08:57.461Z,17.67
2017-10-01T23:11:25.721Z,8.80
2017-10-01T23:13:53.994Z,9.77
2017-10-01T23:16:23.032Z,7.87
2017-10-01T23:18:51.405Z,10.43
2017-10-01T23:21:19.677Z,6.47
2017-10-01T23:23:47.934Z,10.30
2017-10-01T23:26:16.215Z,6.93
2017-10-01T23:28:44.475Z,7.90
2017-10-01T23:31:13.509Z,8.37
2017-10-01T23:33:41.733Z,12.30
2017-10-01T23:36:10.768Z,9.83
2017-10-01T23:38:38.998Z,4.87
2017-10-01T23:41:08.227Z,5.87
2017-10-01T23:43:36.552Z,7.40
2017-10-01T23:46:05.574Z,11.33
2017-10-01T23:48:34.603Z,5.77
2017-10-01T23:51:02.885Z,6.40
2017-10-01T23:53:31.115Z,11.40
2017-10-01T23:55:59.436Z,8.77
2017-10-01T23:58:27.749Z,9.57
